Time;durP1;ratioP1;P1;durP2;ratioP2;P2;SDS_P1;SDS_P2;PMS_P1;PMS_P2;Temp;Humidity;BMP_temperature;BMP_pressure;BME280_temperature;BME280_humidity;BME280_pressure;Samples;Min_cycle;Max_cycle;Signal;HPM_P1;HPM_P2
2021/12/26 00:00:54;;;;;;;;;;;;;;;-3.73;70.05;99315.13;5050896;28;19966;-60
2021/12/26 00:03:25;;;;;;;;;;;;;;;-3.74;70.85;99315.13;5049770;28;20007;-60
2021/12/26 00:05:52;;;;;;;;;;;;;;;-3.74;70.20;99317.69;5049829;28;20419;-60
2021/12/26 00:08:19;;;;;;;;;;;;;;;-3.74;70.01;99320.28;5049774;28;19925;-63
2021/12/26 00:10:48;;;;;;;;;;;;;;;-3.75;70.27;99313.41;5050785;28;19924;-61
2021/12/26 00:13:18;;;;;;;;;;;;;;;-3.76;69.91;99307.41;5049644;28;19924;-61
2021/12/26 00:15:45;;;;;;;;;;;;;;;-3.75;70.08;99310.81;5051415;28;19921;-59
2021/12/26 00:18:12;;;;;;;;;;;;;;;-3.77;70.37;99305.72;5050795;28;19943;-61
2021/12/26 00:20:39;;;;;;;;;;;;;;;-3.78;70.40;99303.16;5050580;28;19920;-56
2021/12/26 00:23:06;;;;;;;;;;;;;;;-3.77;70.51;99304.84;5051040;28;19933;-60
2021/12/26 00:25:34;;;;;;;;;;;;;;;-3.79;69.93;99294.56;5050640;28;20023;-57
2021/12/26 00:28:01;;;;;;;;;;;;;;;-3.79;70.30;99302.28;5050720;28;19966;-57
2021/12/26 00:30:28;;;;;;;;;;;;;;;-3.80;70.07;99291.16;5050633;28;19967;-58
2021/12/26 00:32:55;;;;;;;;;;;;;;;-3.81;70.43;99299.72;5050663;28;20419;-60
2021/12/26 00:35:22;;;;;;;;;;;;;;;-3.81;70.02;99292.00;5050746;28;20029;-60
2021/12/26 00:37:49;;;;;;;;;;;;;;;-3.80;69.87;99298.00;5049557;28;19966;-57
2021/12/26 00:40:19;;;;;;;;;;;;;;;-3.83;70.33;99283.44;5050450;28;19924;-60
2021/12/26 00:42:46;;;;;;;;;;;;;;;-3.83;70.08;99273.16;5049532;28;20009;-59
2021/12/26 00:45:12;;;;;;;;;;;;;;;-3.84;69.79;99279.19;5050873;28;19931;-60
2021/12/26 00:47:39;;;;;;;;;;;;;;;-3.84;70.17;99286.91;5050795;28;19947;-57
2021/12/26 00:50:08;;;;;;;;;;;;;;;-3.85;70.19;99274.88;5050749;28;19924;-60
2021/12/26 00:52:35;;;;;;;;;;;;;;;-3.86;70.27;99270.59;5050814;28;19928;-58
2021/12/26 00:55:02;;;;;;;;;;;;;;;-3.87;69.91;99274.03;5050710;28;20380;-57
2021/12/26 00:57:28;;;;;;;;;;;;;;;-3.86;70.13;99267.16;5050868;28;20285;-60
2021/12/26 00:59:54;;;;;;;;;;;;;;;-3.89;70.42;99262.91;5050426;28;19921;-59
2021/12/26 01:02:21;;;;;;;;;;;;;;;-3.89;69.65;99268.03;5050758;28;19921;-58
2021/12/26 01:04:48;;;;;;;;;;;;;;;-3.90;70.04;99270.66;5049283;28;19924;-60
2021/12/26 01:07:31;;;;;;;;;;;;;;;-3.93;70.04;99256.94;5050464;28;19928;-60
2021/12/26 01:09:58;;;;;;;;;;;;;;;-3.93;70.40;99263.78;5049221;28;19921;-61
2021/12/26 01:12:25;;;;;;;;;;;;;;;-3.94;69.85;99270.66;5050829;28;19982;-59
2021/12/26 01:14:58;;;;;;;;;;;;;;;-3.95;70.44;99273.22;5050665;28;20402;-60
2021/12/26 01:17:26;;;;;;;;;;;;;;;-3.96;70.07;99268.97;5050624;28;20339;-60
2021/12/26 01:19:54;;;;;;;;;;;;;;;-3.99;69.84;99264.69;5050994;28;19998;-61
2021/12/26 01:22:22;;;;;;;;;;;;;;;-4.01;70.60;99263.81;5053021;28;20377;-61
2021/12/26 01:24:55;;;;;;;;;;;;;;;-4.01;70.12;99263.00;5054590;28;19975;-60
2021/12/26 01:27:23;;;;;;;;;;;;;;;-4.06;70.17;99261.31;5054242;28;19925;-59
2021/12/26 01:29:49;;;;;;;;;;;;;;;-4.06;70.46;99266.44;5053923;28;19921;-60
2021/12/26 01:32:17;;;;;;;;;;;;;;;-4.07;70.24;99272.41;5054035;28;19925;-60
2021/12/26 01:34:44;;;;;;;;;;;;;;;-4.08;70.26;99263.00;5052727;28;19928;-60
2021/12/26 01:37:11;;;;;;;;;;;;;;;-4.09;70.29;99260.44;5054070;28;20274;-60
2021/12/26 01:39:38;;;;;;;;;;;;;;;-4.10;69.90;99259.59;5052576;28;19925;-59
2021/12/26 01:42:05;;;;;;;;;;;;;;;-4.10;70.36;99263.88;5053864;28;19929;-59
2021/12/26 01:44:34;;;;;;;;;;;;;;;-4.11;70.32;99255.31;5052490;28;19951;-61
2021/12/26 01:47:00;;;;;;;;;;;;;;;-4.11;70.75;99260.44;5052388;28;19924;-60
2021/12/26 01:49:27;;;;;;;;;;;;;;;-4.11;69.99;99259.59;5053527;28;19924;-61
2021/12/26 01:51:55;;;;;;;;;;;;;;;-4.11;70.64;99252.72;5054001;28;19932;-58
2021/12/26 01:54:31;;;;;;;;;;;;;;;-4.12;69.93;99257.91;5052272;28;19974;-58
2021/12/26 01:57:01;;;;;;;;;;;;;;;-4.14;70.52;99255.34;5053517;28;19924;-60
2021/12/26 01:59:28;;;;;;;;;;;;;;;-4.14;69.96;99246.75;5053147;28;20427;-55
2021/12/26 02:01:55;;;;;;;;;;;;;;;-4.15;70.29;99245.91;5053268;28;20422;-58
2021/12/26 02:04:23;;;;;;;;;;;;;;;-4.15;70.42;99245.06;5053424;28;20026;-59
2021/12/26 02:06:50;;;;;;;;;;;;;;;-4.16;69.98;99238.22;5051983;28;19925;-60
2021/12/26 02:09:16;;;;;;;;;;;;;;;-4.17;70.65;99239.94;5053040;28;19921;-60
2021/12/26 02:11:43;;;;;;;;;;;;;;;-4.17;70.38;99239.94;5053265;28;19921;-56
2021/12/26 02:14:09;;;;;;;;;;;;;;;-4.18;70.43;99240.78;5053154;28;19920;-60
2021/12/26 02:16:36;;;;;;;;;;;;;;;-4.19;70.51;99236.50;5053587;28;19978;-60
2021/12/26 02:19:03;;;;;;;;;;;;;;;-4.20;70.70;99243.38;5052944;28;20427;-62
2021/12/26 02:21:54;;;;;;;;;;;;;;;-4.18;70.71;99238.22;5053003;28;20439;-61
2021/12/26 02:24:28;;;;;;;;;;;;;;;-4.19;70.25;99234.78;5053012;28;19925;-58
2021/12/26 02:29:40;;;;;;;;;;;;;;;-4.20;70.33;99240.81;5052559;28;19951;-60
2021/12/26 02:32:07;;;;;;;;;;;;;;;-4.22;70.30;99228.81;5051745;28;20392;-60
2021/12/26 02:34:33;;;;;;;;;;;;;;;-4.22;70.44;99229.66;5052707;28;20553;-57
2021/12/26 02:37:00;;;;;;;;;;;;;;;-4.23;70.33;99232.25;5052689;28;20050;-59
2021/12/26 02:39:26;;;;;;;;;;;;;;;-4.23;70.30;99232.25;5052373;28;19921;-61
2021/12/26 02:41:53;;;;;;;;;;;;;;;-4.24;70.87;99233.09;5052853;28;19982;-58
2021/12/26 02:44:19;;;;;;;;;;;;;;;-4.24;70.80;99231.41;5052598;28;20418;-60
2021/12/26 02:46:46;;;;;;;;;;;;;;;-4.24;70.17;99231.41;5051248;28;20015;-61
2021/12/26 02:49:12;;;;;;;;;;;;;;;-4.23;70.62;99227.94;5051136;28;19968;-60
2021/12/26 02:51:39;;;;;;;;;;;;;;;-4.22;70.47;99223.69;5051293;28;19924;-60
2021/12/26 02:54:05;;;;;;;;;;;;;;;-4.22;70.78;99224.50;5051296;28;19927;-61
2021/12/26 02:56:33;;;;;;;;;;;;;;;-4.23;70.82;99221.97;5052534;28;19921;-59
2021/12/26 02:58:59;;;;;;;;;;;;;;;-4.21;70.52;99212.53;5052346;28;19920;-59
2021/12/26 03:01:28;;;;;;;;;;;;;;;-4.20;70.44;99211.66;5052184;28;20278;-60
2021/12/26 03:03:55;;;;;;;;;;;;;;;-4.22;70.08;99208.25;5052407;28;19929;-59
2021/12/26 03:06:28;;;;;;;;;;;;;;;-4.21;70.07;99204.81;5050923;28;19921;-57
2021/12/26 03:08:55;;;;;;;;;;;;;;;-4.22;70.08;99214.22;5051069;28;19929;-58
2021/12/26 03:11:22;;;;;;;;;;;;;;;-4.21;70.52;99209.97;5050806;28;19921;-60
2021/12/26 03:13:49;;;;;;;;;;;;;;;-4.22;70.57;99203.94;5052187;28;19924;-60
2021/12/26 03:16:16;;;;;;;;;;;;;;;-4.21;70.23;99203.13;5052268;28;19924;-60
2021/12/26 03:18:42;;;;;;;;;;;;;;;-4.22;70.24;99193.69;5050754;28;19920;-61
2021/12/26 03:21:09;;;;;;;;;;;;;;;-4.21;70.69;99205.69;5051812;28;20021;-58
2021/12/26 03:23:35;;;;;;;;;;;;;;;-4.21;70.22;99205.69;5052132;28;19978;-60
2021/12/26 03:26:04;;;;;;;;;;;;;;;-4.22;70.22;99201.38;5051953;28;19928;-60
2021/12/26 03:28:30;;;;;;;;;;;;;;;-4.22;70.20;99192.84;5051883;28;19924;-60
2021/12/26 03:30:57;;;;;;;;;;;;;;;-4.21;70.41;99191.97;5051378;28;19924;-62
2021/12/26 03:33:26;;;;;;;;;;;;;;;-4.21;70.38;99197.09;5050294;28;20388;-59
2021/12/26 03:35:53;;;;;;;;;;;;;;;-4.21;70.66;99191.97;5051968;28;19974;-60
2021/12/26 03:38:21;;;;;;;;;;;;;;;-4.22;70.10;99196.25;5051753;28;19966;-59
2021/12/26 03:40:48;;;;;;;;;;;;;;;-4.22;70.55;99188.53;5051124;28;20373;-60
2021/12/26 03:43:16;;;;;;;;;;;;;;;-4.21;70.29;99184.25;5049859;28;20359;-59
2021/12/26 03:45:43;;;;;;;;;;;;;;;-4.19;70.85;99187.66;5050162;28;19920;-57
2021/12/26 03:48:10;;;;;;;;;;;;;;;-4.19;71.16;99187.66;5051586;28;19925;-60
2021/12/26 03:50:40;;;;;;;;;;;;;;;-4.17;71.00;99185.94;5051362;28;19924;-60
2021/12/26 03:53:07;;;;;;;;;;;;;;;-4.17;71.08;99188.53;5050090;28;20369;-60
2021/12/26 03:55:33;;;;;;;;;;;;;;;-4.15;70.95;99191.09;5049961;28;19925;-60
2021/12/26 03:58:00;;;;;;;;;;;;;;;-4.13;70.84;99197.06;5051345;28;19921;-61
2021/12/26 04:00:27;;;;;;;;;;;;;;;-4.14;70.22;99188.50;5050710;28;19998;-61
2021/12/26 04:02:54;;;;;;;;;;;;;;;-4.11;70.26;99185.06;5051235;28;19924;-60
2021/12/26 04:05:21;;;;;;;;;;;;;;;-4.11;70.06;99183.31;5051012;28;19921;-55
2021/12/26 04:07:48;;;;;;;;;;;;;;;-4.10;70.63;99185.06;5051087;28;19920;-60
2021/12/26 04:10:15;;;;;;;;;;;;;;;-4.08;70.33;99169.59;5050833;28;19924;-56
2021/12/26 04:12:46;;;;;;;;;;;;;;;-4.07;70.64;99167.03;5051188;28;20022;-58
2021/12/26 04:15:14;;;;;;;;;;;;;;;-4.06;70.50;99166.19;5051132;28;19928;-61
2021/12/26 04:17:41;;;;;;;;;;;;;;;-4.04;70.17;99166.16;5051285;28;19924;-57
2021/12/26 04:20:08;;;;;;;;;;;;;;;-4.03;70.70;99174.72;5050942;28;19925;-60
2021/12/26 04:22:35;;;;;;;;;;;;;;;-4.03;70.22;99170.44;5049907;28;19986;-61
2021/12/26 04:25:02;;;;;;;;;;;;;;;-4.01;70.84;99180.72;5050805;28;19921;-58
2021/12/26 04:27:29;;;;;;;;;;;;;;;-4.00;70.28;99174.72;5050814;28;19928;-59
2021/12/26 04:29:55;;;;;;;;;;;;;;;-3.99;70.59;99176.41;5050643;28;20446;-59
2021/12/26 04:32:22;;;;;;;;;;;;;;;-3.99;70.72;99168.69;5049863;28;19924;-60
2021/12/26 04:34:48;;;;;;;;;;;;;;;-3.98;70.44;99166.13;5050856;28;20374;-61
2021/12/26 04:37:15;;;;;;;;;;;;;;;-3.95;70.72;99167.81;5049599;28;20706;-59
2021/12/26 04:39:42;;;;;;;;;;;;;;;-3.95;71.01;99166.09;5050578;28;19967;-58
2021/12/26 04:42:08;;;;;;;;;;;;;;;-3.94;70.43;99164.38;5050623;28;20438;-58
2021/12/26 04:44:35;;;;;;;;;;;;;;;-3.94;70.77;99167.81;5050824;28;19925;-61
2021/12/26 04:47:01;;;;;;;;;;;;;;;-3.93;70.38;99163.50;5050770;28;19924;-58
2021/12/26 04:49:28;;;;;;;;;;;;;;;-3.94;70.21;99161.81;5050507;28;19924;-59
2021/12/26 04:51:54;;;;;;;;;;;;;;;-3.94;70.25;99165.22;5050883;28;19939;-60
2021/12/26 04:54:21;;;;;;;;;;;;;;;-3.94;69.95;99161.81;5050626;28;19920;-58
2021/12/26 04:56:47;;;;;;;;;;;;;;;-3.94;70.38;99151.50;5054668;28;20639;-60
2021/12/26 04:59:14;;;;;;;;;;;;;;;-3.92;70.18;99149.81;5054718;28;19924;-60
2021/12/26 05:01:41;;;;;;;;;;;;;;;-3.91;70.05;99154.06;5054792;28;19975;-56
2021/12/26 05:04:09;;;;;;;;;;;;;;;-3.89;70.12;99157.47;5054632;28;19925;-61
2021/12/26 05:06:36;;;;;;;;;;;;;;;-3.87;70.53;99157.47;5054561;28;19928;-60
2021/12/26 05:09:04;;;;;;;;;;;;;;;-3.85;70.21;99148.88;5053169;28;19947;-61
2021/12/26 05:11:32;;;;;;;;;;;;;;;-3.84;70.67;99150.59;5054282;28;20431;-60
2021/12/26 05:13:59;;;;;;;;;;;;;;;-3.82;70.23;99148.00;5054485;28;20369;-60
2021/12/26 05:16:25;;;;;;;;;;;;;;;-3.80;70.36;99154.00;5054630;28;20015;-60
2021/12/26 05:18:52;;;;;;;;;;;;;;;-3.78;70.29;99151.41;5054367;28;19928;-60
2021/12/26 05:21:20;;;;;;;;;;;;;;;-3.77;70.34;99150.53;5054047;28;19920;-58
2021/12/26 05:23:46;;;;;;;;;;;;;;;-3.77;69.89;99147.97;5053075;28;19924;-60
2021/12/26 05:26:13;;;;;;;;;;;;;;;-3.76;70.12;99157.38;5054270;28;19924;-60
2021/12/26 05:28:39;;;;;;;;;;;;;;;-3.75;69.85;99159.06;5054517;28;19924;-59
2021/12/26 05:31:06;;;;;;;;;;;;;;;-3.75;70.32;99154.78;5054000;28;19925;-61
2021/12/26 05:33:32;;;;;;;;;;;;;;;-3.73;70.08;99152.22;5054167;28;19924;-59
2021/12/26 05:35:59;;;;;;;;;;;;;;;-3.73;70.27;99144.50;5053950;28;19930;-60
2021/12/26 05:38:27;;;;;;;;;;;;;;;-3.72;70.62;99141.91;5053991;28;19924;-60
2021/12/26 05:40:54;;;;;;;;;;;;;;;-3.70;70.25;99139.34;5053489;28;19978;-61
2021/12/26 05:43:21;;;;;;;;;;;;;;;-3.68;70.52;99137.59;5052591;28;19966;-59
2021/12/26 05:45:47;;;;;;;;;;;;;;;-3.67;70.48;99132.44;5054074;28;20003;-60
2021/12/26 05:48:14;;;;;;;;;;;;;;;-3.66;70.77;99141.84;5053686;28;19921;-59
2021/12/26 05:50:40;;;;;;;;;;;;;;;-3.64;70.75;99133.25;5053510;28;19932;-60
2021/12/26 05:53:07;;;;;;;;;;;;;;;-3.63;70.99;99128.09;5053519;28;20373;-58
2021/12/26 05:55:33;;;;;;;;;;;;;;;-3.62;70.82;99126.41;5053936;28;19978;-58
2021/12/26 05:58:00;;;;;;;;;;;;;;;-3.61;70.30;99117.81;5053792;28;19924;-61
2021/12/26 06:00:26;;;;;;;;;;;;;;;-3.61;70.77;99120.38;5053270;28;19986;-60
2021/12/26 06:02:54;;;;;;;;;;;;;;;-3.61;70.27;99118.69;5053080;28;19925;-61
2021/12/26 06:05:21;;;;;;;;;;;;;;;-3.61;70.06;99116.09;5052825;28;20454;-61
2021/12/26 06:07:49;;;;;;;;;;;;;;;-3.62;70.06;99108.41;5053141;28;19920;-59
2021/12/26 06:10:15;;;;;;;;;;;;;;;-3.64;70.08;99113.56;5051845;28;19941;-61
2021/12/26 06:12:42;;;;;;;;;;;;;;;-3.64;70.16;99110.97;5053196;28;20296;-59
2021/12/26 06:15:08;;;;;;;;;;;;;;;-3.64;69.79;99115.25;5053076;28;19924;-59
2021/12/26 06:17:35;;;;;;;;;;;;;;;-3.65;69.76;99114.44;5053022;28;19921;-61
2021/12/26 06:20:03;;;;;;;;;;;;;;;-3.66;69.70;99110.16;5052562;28;19924;-61
2021/12/26 06:22:29;;;;;;;;;;;;;;;-3.66;69.79;99116.13;5051821;28;20282;-60
2021/12/26 06:24:56;;;;;;;;;;;;;;;-3.66;70.01;99111.00;5052921;28;19936;-61
2021/12/26 06:27:23;;;;;;;;;;;;;;;-3.65;70.13;99111.84;5052866;28;19921;-57
2021/12/26 06:29:49;;;;;;;;;;;;;;;-3.64;70.43;99116.13;5052972;28;19921;-62
2021/12/26 06:32:15;;;;;;;;;;;;;;;-3.63;69.45;99109.28;5052670;28;19921;-62
2021/12/26 06:34:42;;;;;;;;;;;;;;;-3.63;69.68;99104.13;5052643;28;20382;-60
2021/12/26 06:37:09;;;;;;;;;;;;;;;-3.64;69.95;99099.81;5052811;28;19921;-60
2021/12/26 06:39:35;;;;;;;;;;;;;;;-3.64;69.55;99103.25;5052538;28;19925;-63
2021/12/26 06:42:02;;;;;;;;;;;;;;;-3.66;69.61;99097.28;5052615;28;19921;-60
2021/12/26 06:44:28;;;;;;;;;;;;;;;-3.66;69.50;99102.44;5052486;28;19975;-58
2021/12/26 06:46:56;;;;;;;;;;;;;;;-3.69;69.45;99100.75;5052317;28;19928;-60
2021/12/26 06:49:22;;;;;;;;;;;;;;;-3.71;69.20;99099.91;5050711;28;19924;-61
2021/12/26 06:51:49;;;;;;;;;;;;;;;-3.73;69.84;99099.06;5052428;28;19924;-58
2021/12/26 06:54:15;;;;;;;;;;;;;;;-3.73;69.18;99098.22;5052409;28;19967;-63
2021/12/26 06:56:43;;;;;;;;;;;;;;;-3.73;69.17;99095.63;5051926;28;19925;-61
2021/12/26 06:59:09;;;;;;;;;;;;;;;-3.73;69.40;99103.34;5052313;28;19974;-60
2021/12/26 07:01:36;;;;;;;;;;;;;;;-3.74;69.83;99091.38;5052343;28;20372;-62
2021/12/26 07:04:03;;;;;;;;;;;;;;;-3.75;70.14;99092.22;5052304;28;19921;-61
2021/12/26 07:06:29;;;;;;;;;;;;;;;-3.75;69.68;99087.94;5052241;28;20427;-60
2021/12/26 07:08:56;;;;;;;;;;;;;;;-3.75;69.68;99089.63;5052217;28;19975;-59
2021/12/26 07:11:22;;;;;;;;;;;;;;;-3.76;69.86;99093.94;5052024;28;19978;-60
2021/12/26 07:13:49;;;;;;;;;;;;;;;-3.76;70.10;99098.22;5052257;28;19925;-60
2021/12/26 07:16:15;;;;;;;;;;;;;;;-3.76;69.95;99090.50;5051774;28;19924;-60
2021/12/26 07:18:42;;;;;;;;;;;;;;;-3.77;69.37;99097.38;5051486;28;19921;-60
2021/12/26 07:21:08;;;;;;;;;;;;;;;-3.76;69.76;99101.66;5051730;28;20331;-63
2021/12/26 07:23:34;;;;;;;;;;;;;;;-3.75;69.75;99097.34;5051869;28;19925;-61
2021/12/26 07:26:01;;;;;;;;;;;;;;;-3.76;70.06;99106.81;5050708;28;19921;-61
2021/12/26 07:28:27;;;;;;;;;;;;;;;-3.76;69.45;99101.66;5051819;28;19970;-60
2021/12/26 07:30:54;;;;;;;;;;;;;;;-3.76;69.85;99093.94;5051474;28;19975;-60
2021/12/26 07:33:20;;;;;;;;;;;;;;;-3.74;69.62;99104.22;5051359;28;19929;-63
2021/12/26 07:35:47;;;;;;;;;;;;;;;-3.73;69.85;99104.22;5049808;28;20404;-61
2021/12/26 07:38:13;;;;;;;;;;;;;;;-3.70;70.00;99108.47;5050996;28;19978;-61
2021/12/26 07:40:40;;;;;;;;;;;;;;;-3.68;69.74;99109.28;5051345;28;20332;-60
2021/12/26 07:43:06;;;;;;;;;;;;;;;-3.67;69.92;99103.28;5051436;28;19921;-59
2021/12/26 07:45:33;;;;;;;;;;;;;;;-3.65;69.98;99109.28;5050899;28;19947;-62
2021/12/26 07:47:59;;;;;;;;;;;;;;;-3.62;69.80;99106.69;5050959;28;19925;-62
2021/12/26 07:50:26;;;;;;;;;;;;;;;-3.61;70.07;99115.22;5051175;28;19924;-62
2021/12/26 07:52:53;;;;;;;;;;;;;;;-3.60;70.87;99107.50;5050981;28;19966;-62
2021/12/26 07:55:20;;;;;;;;;;;;;;;-3.60;69.96;99109.22;5051759;28;19924;-60
2021/12/26 07:57:49;;;;;;;;;;;;;;;-3.60;69.96;99102.38;5050804;28;19924;-61
2021/12/26 08:00:17;;;;;;;;;;;;;;;-3.62;70.40;99096.41;5051421;28;19925;-60
2021/12/26 08:02:43;;;;;;;;;;;;;;;-3.61;70.16;99100.66;5051464;28;19927;-62
2021/12/26 08:05:10;;;;;;;;;;;;;;;-3.62;70.22;99101.53;5051248;28;19925;-61
2021/12/26 08:07:37;;;;;;;;;;;;;;;-3.61;70.22;99104.94;5051129;28;19933;-60
2021/12/26 08:10:04;;;;;;;;;;;;;;;-3.60;69.58;99110.09;5051074;28;19921;-61
2021/12/26 08:12:30;;;;;;;;;;;;;;;-3.61;70.23;99110.97;5051107;28;19932;-61
2021/12/26 08:14:59;;;;;;;;;;;;;;;-3.61;69.60;99110.09;5051383;28;19978;-60
2021/12/26 08:17:25;;;;;;;;;;;;;;;-3.60;69.89;99116.94;5051133;28;20630;-63
2021/12/26 08:19:52;;;;;;;;;;;;;;;-3.58;70.27;99115.22;5051043;28;20331;-60
2021/12/26 08:22:18;;;;;;;;;;;;;;;-3.57;69.75;99116.91;5049734;28;19932;-60
2021/12/26 08:24:45;;;;;;;;;;;;;;;-3.57;70.49;99111.78;5051095;28;19947;-60
2021/12/26 08:27:11;;;;;;;;;;;;;;;-3.56;70.55;99116.91;5050902;28;19951;-61
2021/12/26 08:29:38;;;;;;;;;;;;;;;-3.53;70.67;99116.03;5050959;28;19928;-61
2021/12/26 08:32:05;;;;;;;;;;;;;;;-3.53;70.03;99118.59;5051034;28;19950;-60
2021/12/26 08:34:32;;;;;;;;;;;;;;;-3.51;70.69;99123.72;5051014;28;19925;-60
2021/12/26 08:37:03;;;;;;;;;;;;;;;-3.50;70.44;99116.00;5049664;28;19925;-60
2021/12/26 08:39:31;;;;;;;;;;;;;;;-3.48;70.67;99118.56;5050692;28;19925;-59
2021/12/26 08:41:58;;;;;;;;;;;;;;;-3.46;70.87;99117.69;5049489;28;20405;-61
2021/12/26 08:44:28;;;;;;;;;;;;;;;-3.43;71.17;99104.75;5050734;28;19925;-61
2021/12/26 08:46:55;;;;;;;;;;;;;;;-3.40;70.54;99112.44;5050931;28;19924;-60
2021/12/26 08:49:22;;;;;;;;;;;;;;;-3.35;71.06;99111.56;5050330;28;20315;-61
2021/12/26 08:51:49;;;;;;;;;;;;;;;-3.33;71.38;99112.41;5049566;28;19951;-61
2021/12/26 08:54:15;;;;;;;;;;;;;;;-3.29;70.78;99117.47;5050800;28;20416;-60
2021/12/26 08:56:43;;;;;;;;;;;;;;;-3.25;71.52;99114.88;5050879;28;19931;-60
2021/12/26 08:59:09;;;;;;;;;;;;;;;-3.20;71.39;99113.09;5050506;28;20589;-59
2021/12/26 09:01:36;;;;;;;;;;;;;;;-3.16;71.48;99109.63;5050046;28;19924;-60
2021/12/26 09:04:03;;;;;;;;;;;;;;;-3.11;71.55;99112.16;5049623;28;19979;-60
2021/12/26 09:06:30;;;;;;;;;;;;;;;-3.06;71.20;99107.81;5049303;28;19924;-60
2021/12/26 09:08:56;;;;;;;;;;;;;;;-3.01;71.26;99108.59;5050703;28;19925;-62
2021/12/26 09:11:23;;;;;;;;;;;;;;;-2.95;71.76;99105.09;5050499;28;19920;-60
2021/12/26 09:13:49;;;;;;;;;;;;;;;-2.90;71.37;99104.19;5050895;28;19932;-61
2021/12/26 09:16:16;;;;;;;;;;;;;;;-2.83;72.23;99104.09;5050626;28;19947;-60
2021/12/26 09:18:42;;;;;;;;;;;;;;;-2.79;71.50;99108.34;5050542;28;20011;-59
2021/12/26 09:21:09;;;;;;;;;;;;;;;-2.72;71.49;99109.09;5050147;28;19970;-61
2021/12/26 09:23:35;;;;;;;;;;;;;;;-2.68;71.81;99106.50;5050084;28;19927;-60
2021/12/26 09:26:02;;;;;;;;;;;;;;;-2.62;71.73;99113.25;5050608;28;20043;-59
2021/12/26 09:28:29;;;;;;;;;;;;;;;-2.55;71.61;99117.47;5050345;28;19921;-60
2021/12/26 09:30:55;;;;;;;;;;;;;;;-2.49;72.12;99113.97;5050246;28;20380;-60
2021/12/26 09:33:22;;;;;;;;;;;;;;;-2.42;71.99;99117.31;5048849;28;20006;-59
2021/12/26 09:35:49;;;;;;;;;;;;;;;-2.36;71.95;99110.31;5050207;28;19975;-60
2021/12/26 09:38:16;;;;;;;;;;;;;;;-2.30;72.32;99111.97;5050372;28;19928;-62
2021/12/26 09:40:43;;;;;;;;;;;;;;;-2.23;72.07;99121.31;5050463;28;19921;-61
2021/12/26 09:43:09;;;;;;;;;;;;;;;-2.17;72.15;99112.63;5053851;28;19929;-60
2021/12/26 09:45:36;;;;;;;;;;;;;;;-2.11;72.31;99115.13;5053769;28;19977;-61
2021/12/26 09:48:02;;;;;;;;;;;;;;;-2.06;72.21;99109.88;5053764;28;19978;-61
2021/12/26 09:50:29;;;;;;;;;;;;;;;-2.01;72.47;99108.09;5053662;28;19982;-60
2021/12/26 09:52:55;;;;;;;;;;;;;;;-1.95;72.20;99111.44;5053879;28;19975;-59
2021/12/26 09:55:25;;;;;;;;;;;;;;;-1.90;72.36;99110.50;5053840;28;19925;-63
2021/12/26 09:57:51;;;;;;;;;;;;;;;-1.84;72.22;99114.69;5053741;28;19924;-60
2021/12/26 10:00:19;;;;;;;;;;;;;;;-1.80;72.17;99115.50;5053478;28;19975;-68
2021/12/26 10:02:46;;;;;;;;;;;;;;;-1.76;71.69;99107.69;5053513;28;19946;-61
2021/12/26 10:05:12;;;;;;;;;;;;;;;-1.71;72.14;99113.59;5053790;28;20015;-61
2021/12/26 10:07:39;;;;;;;;;;;;;;;-1.67;71.88;99111.84;5053395;28;19974;-60
2021/12/26 10:10:07;;;;;;;;;;;;;;;-1.62;72.05;99104.88;5053159;28;20414;-59
2021/12/26 10:12:40;;;;;;;;;;;;;;;-1.57;72.25;99102.22;5053533;28;19924;-61
2021/12/26 10:15:07;;;;;;;;;;;;;;;-1.50;72.26;99097.78;5053485;28;19920;-61
2021/12/26 10:17:33;;;;;;;;;;;;;;;-1.43;72.22;99095.94;5051937;28;20418;-60
2021/12/26 10:20:05;;;;;;;;;;;;;;;-1.36;72.15;99089.78;5053219;28;19947;-60
2021/12/26 10:22:31;;;;;;;;;;;;;;;-1.27;72.56;99079.25;5052151;28;19924;-59
2021/12/26 10:24:58;;;;;;;;;;;;;;;-1.17;72.58;99086.84;5053100;28;19935;-60
2021/12/26 10:27:30;;;;;;;;;;;;;;;-1.06;72.75;99090.06;5053179;28;19925;-60
2021/12/26 10:29:58;;;;;;;;;;;;;;;-0.97;72.64;99078.69;5052764;28;20424;-59
2021/12/26 10:32:26;;;;;;;;;;;;;;;-0.85;72.91;99075.00;5051768;28;19925;-62
2021/12/26 10:35:05;;;;;;;;;;;;;;;-0.76;72.94;99074.81;5053144;28;19921;-60
2021/12/26 10:37:33;;;;;;;;;;;;;;;-0.65;72.78;99071.97;5051747;28;19971;-60
2021/12/26 10:40:01;;;;;;;;;;;;;;;-0.55;73.09;99067.47;5052537;28;20433;-60
2021/12/26 10:42:29;;;;;;;;;;;;;;;-0.46;72.89;99067.25;5052682;28;19921;-61
2021/12/26 10:44:56;;;;;;;;;;;;;;;-0.38;72.92;99064.47;5052927;28;19988;-60
2021/12/26 10:47:24;;;;;;;;;;;;;;;-0.30;73.10;99066.91;5051539;28;20036;-61
2021/12/26 10:49:51;;;;;;;;;;;;;;;-0.22;73.58;99069.31;5050928;28;19924;-60
2021/12/26 10:52:21;;;;;;;;;;;;;;;-0.16;72.87;99062.25;5051609;28;19921;-60
2021/12/26 10:54:48;;;;;;;;;;;;;;;-0.09;73.08;99062.94;5051213;28;19921;-61
2021/12/26 10:57:20;;;;;;;;;;;;;;;-0.02;72.67;99066.22;5052376;28;19925;-63
2021/12/26 10:59:56;;;;;;;;;;;;;;;0.03;72.67;99068.72;5051087;28;19928;-62
2021/12/26 11:02:26;;;;;;;;;;;;;;;0.08;72.90;99046.16;5052253;28;19927;-60
2021/12/26 11:04:54;;;;;;;;;;;;;;;0.15;72.69;99052.03;5052213;28;20350;-60
2021/12/26 11:07:20;;;;;;;;;;;;;;;0.21;72.72;99054.44;5051965;28;20286;-62
2021/12/26 11:09:59;;;;;;;;;;;;;;;0.25;73.09;99043.13;5051425;28;19931;-60
2021/12/26 11:12:34;;;;;;;;;;;;;;;0.31;73.17;99039.53;5051973;28;20339;-62
2021/12/26 11:15:03;;;;;;;;;;;;;;;0.36;73.81;99041.09;5052218;28;19970;-62
2021/12/26 11:17:29;;;;;;;;;;;;;;;0.43;73.33;99035.75;5047954;28;19920;-59
2021/12/26 11:19:56;;;;;;;;;;;;;;;0.48;73.15;99045.09;5050822;28;19925;-61
2021/12/26 11:22:23;;;;;;;;;;;;;;;0.52;73.02;99033.78;5051122;28;20285;-62
2021/12/26 11:24:50;;;;;;;;;;;;;;;0.57;73.27;99032.78;5050818;28;19920;-60
2021/12/26 11:27:16;;;;;;;;;;;;;;;0.59;73.14;99034.44;5050484;28;19928;-61
2021/12/26 11:29:43;;;;;;;;;;;;;;;0.62;72.51;99031.78;5051281;28;19929;-62
2021/12/26 11:32:09;;;;;;;;;;;;;;;0.66;72.76;99026.53;5050321;28;19921;-61
2021/12/26 11:34:40;;;;;;;;;;;;;;;0.70;72.77;99028.09;5051465;28;19924;-60
2021/12/26 11:37:08;;;;;;;;;;;;;;;0.73;73.56;99021.13;5051865;28;19994;-60
2021/12/26 11:39:37;;;;;;;;;;;;;;;0.76;73.35;99022.78;5051320;28;20353;-61
2021/12/26 11:42:03;;;;;;;;;;;;;;;0.80;73.35;99008.84;5051487;28;19924;-60
2021/12/26 11:44:36;;;;;;;;;;;;;;;0.87;73.43;99012.09;5051506;28;20361;-62
2021/12/26 11:47:16;;;;;;;;;;;;;;;0.90;73.54;99010.25;5051402;28;19928;-60
2021/12/26 11:50:04;;;;;;;;;;;;;;;0.96;73.29;99010.97;5050989;28;19924;-62
2021/12/26 11:52:42;;;;;;;;;;;;;;;1.00;73.92;99005.66;5051299;28;19929;-61
2021/12/26 11:55:23;;;;;;;;;;;;;;;1.06;73.90;99007.22;5051277;28;19974;-61
2021/12/26 11:58:02;;;;;;;;;;;;;;;1.10;73.75;98997.59;5050437;28;19978;-60
2021/12/26 12:00:35;;;;;;;;;;;;;;;1.15;73.81;99003.47;5051022;28;20458;-62
2021/12/26 12:03:03;;;;;;;;;;;;;;;1.20;73.75;99000.75;5050129;28;19928;-60
2021/12/26 12:05:40;;;;;;;;;;;;;;;1.23;74.09;98996.31;5051036;28;19958;-60
2021/12/26 12:08:10;;;;;;;;;;;;;;;1.27;73.50;98994.50;5049750;28;19933;-64
2021/12/26 12:10:40;;;;;;;;;;;;;;;1.30;73.25;98992.66;5050960;28;19975;-61
2021/12/26 12:13:09;;;;;;;;;;;;;;;1.33;73.54;98991.72;5049803;28;20343;-60
2021/12/26 12:15:43;;;;;;;;;;;;;;;1.36;73.33;98988.16;5050962;28;19928;-59
2021/12/26 12:18:13;;;;;;;;;;;;;;;1.38;74.20;98991.56;5050899;28;19928;-60
2021/12/26 12:20:39;;;;;;;;;;;;;;;1.38;73.73;99007.97;5049353;28;19929;-60
2021/12/26 12:23:09;;;;;;;;;;;;;;;1.39;73.26;98996.69;5051091;28;19924;-60
2021/12/26 12:25:36;;;;;;;;;;;;;;;1.42;73.34;99001.78;5049753;28;19986;-60
2021/12/26 12:28:10;;;;;;;;;;;;;;;1.41;73.51;99000.09;5050937;28;19974;-60
2021/12/26 12:30:37;;;;;;;;;;;;;;;1.43;73.19;99000.88;5050475;28;19924;-61
2021/12/26 12:33:17;;;;;;;;;;;;;;;1.46;73.84;98991.31;5049499;28;19978;-62
2021/12/26 12:35:59;;;;;;;;;;;;;;;1.49;73.65;98984.28;5050890;28;19947;-61
2021/12/26 12:38:31;;;;;;;;;;;;;;;1.50;73.75;98987.75;5050828;28;19998;-62
2021/12/26 12:41:30;;;;;;;;;;;;;;;1.53;73.79;98985.88;5049356;28;20024;-61
2021/12/26 12:43:58;;;;;;;;;;;;;;;1.55;73.13;98980.66;5050548;28;19921;-62
2021/12/26 12:46:25;;;;;;;;;;;;;;;1.56;73.36;98977.16;5050711;28;19947;-60
2021/12/26 12:49:00;;;;;;;;;;;;;;;1.58;74.09;98980.56;5050629;28;20427;-61
2021/12/26 12:51:26;;;;;;;;;;;;;;;1.60;73.66;98973.56;5050263;28;19924;-61
2021/12/26 12:53:55;;;;;;;;;;;;;;;1.61;73.89;98983.03;5050590;28;19951;-59